Butts AAF (Fort Carson) Air Field
KFCS : now visible

Airfield :











YOU CAN JOIN US ON...

 
LOGIN :

Register | Disclaimer

   EN    FR    IT 

 









Legend :    VFR   Marginal VFR   IFR   Intensive IFR   Very Intensive IFR
Visi :
Ceiling :
>= 8 km
>= 3000ft
5 to 8 km
1000 to 3000 ft
1500m to 5 km
500 to 1000 ft
800 to 1500m
200 to 500 ft
< 800m
< 200 ft
Symbols :   Thunderstorms  Fog  Heavy snow  Heavy precipitations  Wind > 20 kt






- Airport Elevation : 5838 ft


KFCS - Butts AAF (Fort Carson) Air Field

CURRENT METAR :
  • 290458Z AUTO 32006KT 10SM CLR 23/11 A3018 RMK AO2 SLP148 T02280106 $

EXPIRED METARs :
  • 290408Z 01003KT 10SM CLR 24/09 A3017 RMK SLP145 T02400088 $
  • 290258Z AUTO 25005KT 10SM CLR 28/08 A3014 RMK AO2 SLP134 T02760079 50003 $

TAF TAF KFCS
Valid from the 29 at 05:00 until the 30 at 11:00 UTC


290508Z 2905/3011 34009KT 9999 SKC QNH3015INS
BECMG 2917/2918 14010G15KT 9999 SCT090 QNH3019INS
BECMG 3005/3006 VRB06KT 9999 FEW090 QNH3024INS TX32/2922Z TN18/2912Z
KZDV FIR / North America



MET'MAP, your aeronautical weather chart ! - Copyright ORBIFLY December 2007 - Disclaimer

ORBIFLY MET'MAP TEAM :

Programming & Development : Alexandra Zaïnal
Concept & original design : Baudouin d'Aumeries
Assistance for programming : Marc-Olivier Méhu
Technical & hardware support : Manuel Goepfert

Contact : metmap@orbifly.com




SOURCES & CREDITS :

   NOAA       Earth
Advisory